Time;durP1;ratioP1;P1;durP2;ratioP2;P2;SDS_P1;SDS_P2;PMS_P1;PMS_P2;Temp;Humidity;BMP_temperature;BMP_pressure;BME280_temperature;BME280_humidity;BME280_pressure;Samples;Min_cycle;Max_cycle;Signal;HPM_P1;HPM_P2
2021/07/28 00:02:06;;;;;;;;;;;640.70;2432.00;;;;;;5089496;28;20003;-73
2021/07/28 00:04:32;;;;;;;;;;;640.70;2432.00;;;;;;5092370;28;19916;-74
2021/07/28 00:06:58;;;;;;;;;;;640.60;2432.00;;;;;;5089256;28;19943;-73
2021/07/28 00:09:24;;;;;;;;;;;640.60;2432.00;;;;;;5088299;28;19960;-74
2021/07/28 00:11:49;;;;;;;;;;;640.40;2432.00;;;;;;5090694;28;19908;-72
2021/07/28 00:14:15;;;;;;;;;;;640.50;2432.00;;;;;;5089823;28;19966;-76
2021/07/28 00:16:41;;;;;;;;;;;640.60;2432.00;;;;;;5091620;28;19904;-77
2021/07/28 00:19:16;;;;;;;;;;;640.70;2432.00;;;;;;5089229;28;20007;-75
2021/07/28 00:24:30;;;;;;;;;;;640.70;2432.00;;;;;;5084917;28;19911;-72
2021/07/28 00:26:56;;;;;;;;;;;640.70;2432.00;;;;;;5089521;28;19911;-73
2021/07/28 00:29:22;;;;;;;;;;;640.60;2432.00;;;;;;5086359;28;19905;-72
2021/07/28 00:31:47;;;;;;;;;;;640.60;2432.00;;;;;;5090221;28;19914;-73
2021/07/28 00:34:13;;;;;;;;;;;640.50;2432.00;;;;;;5086404;28;19973;-73
2021/07/28 00:36:38;;;;;;;;;;;640.50;2432.00;;;;;;5083989;28;19987;-73
2021/07/28 00:39:04;;;;;;;;;;;640.70;2432.00;;;;;;5088454;28;19903;-74
2021/07/28 00:41:30;;;;;;;;;;;640.70;2432.00;;;;;;5084582;28;19904;-74
2021/07/28 00:43:55;;;;;;;;;;;640.60;2432.00;;;;;;5089456;28;19914;-73
2021/07/28 00:46:21;;;;;;;;;;;640.60;2432.00;;;;;;5086307;28;19904;-73
2021/07/28 00:48:46;;;;;;;;;;;640.40;2432.00;;;;;;5083768;28;19908;-74
2021/07/28 00:51:12;;;;;;;;;;;640.20;2432.00;;;;;;5072731;28;19908;-73
2021/07/28 00:53:38;;;;;;;;;;;640.30;2432.00;;;;;;5072941;28;19904;-75
2021/07/28 00:56:04;;;;;;;;;;;640.20;2432.00;;;;;;5078347;28;19912;-73
2021/07/28 00:58:30;;;;;;;;;;;640.20;2432.00;;;;;;5079192;28;19958;-76
2021/07/28 01:00:56;;;;;;;;;;;640.20;2432.00;;;;;;5079227;28;19908;-77
2021/07/28 01:03:22;;;;;;;;;;;640.20;2432.00;;;;;;5092423;28;19911;-73
2021/07/28 01:05:47;;;;;;;;;;;640.10;2432.00;;;;;;5099501;28;19904;-73
2021/07/28 01:08:13;;;;;;;;;;;615.30;2432.00;;;;;;5099766;28;19908;-77
2021/07/28 01:10:39;;;;;;;;;;;615.20;2432.00;;;;;;5099382;28;19920;-77
2021/07/28 01:13:05;;;;;;;;;;;615.30;2432.00;;;;;;5081699;28;20298;-78
2021/07/28 01:18:05;;;;;;;;;;;615.30;2432.00;;;;;;5099679;28;19905;-75
2021/07/28 01:20:38;;;;;;;;;;;615.20;2432.00;;;;;;5099503;28;19904;-73
2021/07/28 01:23:05;;;;;;;;;;;615.30;2432.00;;;;;;5099546;28;19908;-74
2021/07/28 01:25:34;;;;;;;;;;;615.20;2432.00;;;;;;5099560;28;20371;-73
2021/07/28 01:28:01;;;;;;;;;;;615.20;2432.00;;;;;;5099491;28;19947;-73
2021/07/28 01:30:27;;;;;;;;;;;615.20;2432.00;;;;;;5099359;28;19915;-73
2021/07/28 01:32:52;;;;;;;;;;;615.20;2432.00;;;;;;5099345;28;19904;-74
2021/07/28 01:35:19;;;;;;;;;;;615.10;2432.00;;;;;;5095970;28;19994;-79
2021/07/28 01:37:45;;;;;;;;;;;615.00;2432.00;;;;;;5081263;28;19911;-71
2021/07/28 01:40:14;;;;;;;;;;;614.90;2432.00;;;;;;5099528;28;19912;-78
2021/07/28 01:42:43;;;;;;;;;;;614.80;2432.00;;;;;;5088338;28;19904;-79
2021/07/28 01:45:09;;;;;;;;;;;614.80;2432.00;;;;;;5099485;28;19908;-78
2021/07/28 01:47:35;;;;;;;;;;;614.90;2432.00;;;;;;5099603;28;19904;-77
2021/07/28 01:50:00;;;;;;;;;;;615.00;2432.00;;;;;;5081130;28;19911;-79
2021/07/28 01:52:26;;;;;;;;;;;615.10;2432.00;;;;;;5099258;28;20419;-78
2021/07/28 01:54:51;;;;;;;;;;;615.00;2432.00;;;;;;5099377;28;19911;-79
2021/07/28 01:57:17;;;;;;;;;;;614.90;2432.00;;;;;;5099264;28;19929;-73
2021/07/28 01:59:42;;;;;;;;;;;614.90;2432.00;;;;;;5099099;28;19908;-77
2021/07/28 02:02:08;;;;;;;;;;;614.90;2432.00;;;;;;5098997;28;19943;-80
2021/07/28 02:04:33;;;;;;;;;;;614.90;2432.00;;;;;;5081193;28;19908;-84
2021/07/28 02:06:59;;;;;;;;;;;615.00;2432.00;;;;;;5077977;28;19903;-85
2021/07/28 02:09:24;;;;;;;;;;;615.00;2432.00;;;;;;5095925;28;19916;-84
2021/07/28 02:11:50;;;;;;;;;;;615.00;2432.00;;;;;;5075898;28;19909;-78
2021/07/28 02:14:16;;;;;;;;;;;615.00;2432.00;;;;;;5075882;28;20286;-77
2021/07/28 02:16:41;;;;;;;;;;;615.00;2432.00;;;;;;5075497;28;19904;-74
2021/07/28 02:19:07;;;;;;;;;;;615.00;2432.00;;;;;;5075465;28;20293;-77
2021/07/28 02:21:33;;;;;;;;;;;614.90;2432.00;;;;;;5075671;28;19950;-79
2021/07/28 02:23:59;;;;;;;;;;;615.00;2432.00;;;;;;5075616;28;19995;-78
2021/07/28 02:26:25;;;;;;;;;;;614.90;2432.00;;;;;;5075444;28;20345;-74
2021/07/28 02:28:52;;;;;;;;;;;614.90;2432.00;;;;;;5075328;28;19905;-74
2021/07/28 02:31:18;;;;;;;;;;;614.90;2432.00;;;;;;5075343;28;19914;-74
2021/07/28 02:33:43;;;;;;;;;;;614.90;2432.00;;;;;;5075345;28;20375;-77
2021/07/28 02:36:09;;;;;;;;;;;615.00;2432.00;;;;;;5074567;28;19962;-82
2021/07/28 02:38:35;;;;;;;;;;;615.10;2432.00;;;;;;5075244;28;19986;-82
2021/07/28 02:41:01;;;;;;;;;;;615.10;2432.00;;;;;;5075044;28;19905;-83
2021/07/28 02:43:27;;;;;;;;;;;615.10;2432.00;;;;;;5056736;28;19904;-83
2021/07/28 02:45:52;;;;;;;;;;;615.10;2432.00;;;;;;5057035;28;19905;-83
2021/07/28 02:48:18;;;;;;;;;;;615.00;2432.00;;;;;;5056709;28;19990;-82
2021/07/28 02:50:43;;;;;;;;;;;615.00;2432.00;;;;;;5074989;28;19912;-83
2021/07/28 02:53:09;;;;;;;;;;;614.90;2432.00;;;;;;5056795;28;19990;-81
2021/07/28 02:55:34;;;;;;;;;;;614.90;2432.00;;;;;;5056973;28;20417;-83
2021/07/28 02:58:00;;;;;;;;;;;614.90;2432.00;;;;;;5074393;28;20321;-83
2021/07/28 03:00:25;;;;;;;;;;;614.80;2432.00;;;;;;5074755;28;19905;-82
2021/07/28 03:02:51;;;;;;;;;;;614.90;2432.00;;;;;;5056642;28;19956;-85
2021/07/28 03:05:17;;;;;;;;;;;614.90;2432.00;;;;;;5056662;28;19908;-84
2021/07/28 03:07:42;;;;;;;;;;;614.80;2432.00;;;;;;5056796;28;20355;-82
2021/07/28 03:10:08;;;;;;;;;;;614.80;2432.00;;;;;;5056131;28;19916;-84
2021/07/28 03:12:34;;;;;;;;;;;614.80;2432.00;;;;;;5056661;28;20286;-75
2021/07/28 03:14:59;;;;;;;;;;;614.90;2432.00;;;;;;5074445;28;19905;-78
2021/07/28 03:17:26;;;;;;;;;;;615.00;2432.00;;;;;;5074212;28;19927;-81
2021/07/28 03:19:51;;;;;;;;;;;614.90;2432.00;;;;;;5074187;28;19987;-82
2021/07/28 03:22:17;;;;;;;;;;;615.00;2432.00;;;;;;5056201;28;19927;-83
2021/07/28 03:24:43;;;;;;;;;;;615.00;2432.00;;;;;;5077555;28;20428;-74
2021/07/28 03:27:08;;;;;;;;;;;615.00;2432.00;;;;;;5078510;28;19904;-77
2021/07/28 03:29:34;;;;;;;;;;;615.00;2432.00;;;;;;5074021;28;19904;-82
2021/07/28 03:31:59;;;;;;;;;;;615.00;2432.00;;;;;;5056149;28;19908;-82
2021/07/28 03:34:25;;;;;;;;;;;615.00;2432.00;;;;;;5070362;28;19995;-82
2021/07/28 03:36:51;;;;;;;;;;;615.00;2432.00;;;;;;5073290;28;19904;-74
2021/07/28 03:39:16;;;;;;;;;;;615.00;2432.00;;;;;;5073783;28;19904;-74
2021/07/28 03:41:42;;;;;;;;;;;615.00;2432.00;;;;;;5070235;28;19984;-73
2021/07/28 03:44:08;;;;;;;;;;;614.90;2432.00;;;;;;5069447;28;19904;-77
2021/07/28 03:46:34;;;;;;;;;;;614.90;2432.00;;;;;;5073862;28;20418;-82
2021/07/28 03:49:00;;;;;;;;;;;614.90;2432.00;;;;;;5055966;28;20376;-82
2021/07/28 03:51:25;;;;;;;;;;;614.90;2432.00;;;;;;5073476;28;19908;-78
2021/07/28 03:53:51;;;;;;;;;;;614.90;2432.00;;;;;;5073657;28;19911;-77
2021/07/28 03:56:23;;;;;;;;;;;615.00;2432.00;;;;;;5073577;28;19940;-77
2021/07/28 03:58:53;;;;;;;;;;;615.00;2432.00;;;;;;5073716;28;19904;-74
2021/07/28 04:01:18;;;;;;;;;;;615.00;2432.00;;;;;;5073432;28;19960;-73
2021/07/28 04:03:44;;;;;;;;;;;615.00;2432.00;;;;;;5073505;28;19944;-83
2021/07/28 04:06:09;;;;;;;;;;;615.00;2432.00;;;;;;5073528;28;19911;-84
2021/07/28 04:08:35;;;;;;;;;;;615.00;2432.00;;;;;;5055162;28;19943;-74
2021/07/28 04:11:01;;;;;;;;;;;615.00;2432.00;;;;;;5073465;28;19916;-74
2021/07/28 04:13:26;;;;;;;;;;;615.00;2432.00;;;;;;5073356;28;19908;-77
2021/07/28 04:15:52;;;;;;;;;;;615.00;2432.00;;;;;;5073392;28;19904;-73
2021/07/28 04:18:17;;;;;;;;;;;615.00;2432.00;;;;;;5073587;28;20362;-77
2021/07/28 04:20:43;;;;;;;;;;;615.10;2432.00;;;;;;5073165;28;20374;-78
2021/07/28 04:23:08;;;;;;;;;;;615.00;2432.00;;;;;;5073406;28;19904;-77
2021/07/28 04:25:34;;;;;;;;;;;615.00;2432.00;;;;;;5073425;28;19991;-78
2021/07/28 04:27:59;;;;;;;;;;;615.10;2432.00;;;;;;5073469;28;19904;-78
2021/07/28 04:30:25;;;;;;;;;;;615.10;2432.00;;;;;;5072544;28;20401;-83
2021/07/28 04:32:50;;;;;;;;;;;615.20;2432.00;;;;;;5055240;28;20380;-83
2021/07/28 04:35:16;;;;;;;;;;;615.30;2432.00;;;;;;5062698;28;19905;-85
2021/07/28 04:37:42;;;;;;;;;;;615.30;2432.00;;;;;;5071620;28;19905;-83
2021/07/28 04:40:07;;;;;;;;;;;615.30;2432.00;;;;;;5073254;28;20050;-79
2021/07/28 04:42:33;;;;;;;;;;;615.30;2432.00;;;;;;5064683;28;19908;-78
2021/07/28 04:44:59;;;;;;;;;;;615.30;2432.00;;;;;;5073286;28;20336;-74
2021/07/28 04:47:24;;;;;;;;;;;640.00;2432.00;;;;;;5073189;28;19904;-73
2021/07/28 04:49:50;;;;;;;;;;;640.00;2432.00;;;;;;5072964;28;19958;-75
2021/07/28 04:52:16;;;;;;;;;;;640.10;2432.00;;;;;;5072849;28;19908;-75
2021/07/28 04:54:41;;;;;;;;;;;640.20;2432.00;;;;;;5073090;28;19927;-78
2021/07/28 04:57:07;;;;;;;;;;;640.40;2432.00;;;;;;5072916;28;19904;-74
2021/07/28 04:59:33;;;;;;;;;;;640.50;2432.00;;;;;;5072755;28;19990;-74
2021/07/28 05:01:58;;;;;;;;;;;640.50;2432.00;;;;;;5072779;28;19910;-74
2021/07/28 05:04:24;;;;;;;;;;;640.60;2432.00;;;;;;5072710;28;19904;-74
2021/07/28 05:06:49;;;;;;;;;;;640.60;2432.00;;;;;;5072883;28;20011;-74
2021/07/28 05:09:16;;;;;;;;;;;640.70;2432.00;;;;;;5072735;28;19916;-74
2021/07/28 05:11:42;;;;;;;;;;;640.70;2432.00;;;;;;5072922;28;19915;-74
2021/07/28 05:14:07;;;;;;;;;;;640.70;2432.00;;;;;;5072802;28;19958;-75
2021/07/28 05:16:33;;;;;;;;;;;640.60;2432.00;;;;;;5072610;28;19985;-74
2021/07/28 05:18:58;;;;;;;;;;;640.60;2432.00;;;;;;5072666;28;19912;-73
2021/07/28 05:21:24;;;;;;;;;;;640.60;2432.00;;;;;;5072904;28;20436;-78
2021/07/28 05:23:49;;;;;;;;;;;640.60;2432.00;;;;;;5072653;28;19912;-78
2021/07/28 05:26:15;;;;;;;;;;;640.60;2432.00;;;;;;5072668;28;19912;-78
2021/07/28 05:28:41;;;;;;;;;;;640.70;2432.00;;;;;;5072682;28;19958;-77
2021/07/28 05:31:06;;;;;;;;;;;640.70;2432.00;;;;;;5072594;28;19962;-73
2021/07/28 05:33:32;;;;;;;;;;;640.90;2432.00;;;;;;5072498;28;20374;-73
2021/07/28 05:35:57;;;;;;;;;;;640.90;2432.00;;;;;;5060276;28;19905;-72
2021/07/28 05:38:23;;;;;;;;;;;665.60;2432.00;;;;;;5072526;28;19909;-73
2021/07/28 05:40:48;;;;;;;;;;;665.70;2432.00;;;;;;5072368;28;19905;-73
2021/07/28 05:43:14;;;;;;;;;;;665.70;2432.00;;;;;;5067575;28;19950;-74
2021/07/28 05:45:39;;;;;;;;;;;665.90;2432.00;;;;;;5076076;28;19904;-73
2021/07/28 05:48:05;;;;;;;;;;;665.90;2432.00;;;;;;5076140;28;19908;-73
2021/07/28 05:50:31;;;;;;;;;;;665.90;2432.00;;;;;;5076282;28;20007;-74
2021/07/28 05:52:56;;;;;;;;;;;666.00;2432.00;;;;;;5075953;28;19909;-75
2021/07/28 05:55:22;;;;;;;;;;;666.10;2432.00;;;;;;5075921;28;20416;-74
2021/07/28 05:57:48;;;;;;;;;;;666.20;2432.00;;;;;;5075862;28;19905;-74
2021/07/28 06:00:14;;;;;;;;;;;666.30;2432.00;;;;;;5076041;28;19908;-74
2021/07/28 06:02:40;;;;;;;;;;;666.50;2432.00;;;;;;5076008;28;19912;-73
2021/07/28 06:05:06;;;;;;;;;;;666.40;2432.00;;;;;;5075771;28;19904;-74
2021/07/28 06:07:31;;;;;;;;;;;666.40;2432.00;;;;;;5075914;28;19904;-73
2021/07/28 06:09:57;;;;;;;;;;;666.50;2432.00;;;;;;5075448;28;19951;-73
2021/07/28 06:12:22;;;;;;;;;;;666.50;2432.00;;;;;;5075618;28;19959;-73
2021/07/28 06:14:48;;;;;;;;;;;666.50;2432.00;;;;;;5075502;28;19959;-72
2021/07/28 06:17:13;;;;;;;;;;;691.20;2432.00;;;;;;5075723;28;19908;-73
2021/07/28 06:19:39;;;;;;;;;;;691.30;2432.00;;;;;;5075614;28;20275;-72
2021/07/28 06:22:05;;;;;;;;;;;691.50;2432.00;;;;;;5075432;28;19951;-73
2021/07/28 06:24:31;;;;;;;;;;;691.60;2432.00;;;;;;5075523;28;19908;-73
2021/07/28 06:26:57;;;;;;;;;;;691.70;2432.00;;;;;;5057513;28;19911;-73
2021/07/28 06:29:25;;;;;;;;;;;691.70;2432.00;;;;;;5057548;28;19904;-74
2021/07/28 06:31:51;;;;;;;;;;;691.70;2432.00;;;;;;5075308;28;19982;-74
2021/07/28 06:34:16;;;;;;;;;;;691.80;2432.00;;;;;;5072842;28;20310;-73
2021/07/28 06:36:42;;;;;;;;;;;691.70;2432.00;;;;;;5065634;28;19904;-73
2021/07/28 06:39:08;;;;;;;;;;;691.80;2432.00;;;;;;5074995;28;20054;-72
2021/07/28 06:41:33;;;;;;;;;;;691.90;2432.00;;;;;;5072705;28;19951;-72
2021/07/28 06:43:59;;;;;;;;;;;692.00;2432.00;;;;;;5069290;28;19905;-73
2021/07/28 06:46:25;;;;;;;;;;;692.10;2432.00;;;;;;5074943;28;20005;-73
2021/07/28 06:48:50;;;;;;;;;;;716.80;2432.00;;;;;;5075117;28;20365;-72
2021/07/28 06:51:16;;;;;;;;;;;716.80;2432.00;;;;;;5074711;28;19994;-75
2021/07/28 06:53:42;;;;;;;;;;;717.00;2432.00;;;;;;5074445;28;19912;-73
2021/07/28 06:56:08;;;;;;;;;;;717.10;2432.00;;;;;;5074768;28;19919;-76
2021/07/28 06:58:33;;;;;;;;;;;717.20;2432.00;;;;;;5056797;28;19915;-75
2021/07/28 07:01:00;;;;;;;;;;;717.20;2432.00;;;;;;5076941;28;20389;-72
2021/07/28 07:03:25;;;;;;;;;;;717.30;2432.00;;;;;;5074690;28;19908;-72
2021/07/28 07:05:51;;;;;;;;;;;717.50;2432.00;;;;;;5074511;28;19953;-72
2021/07/28 07:08:16;;;;;;;;;;;717.60;2432.00;;;;;;5074663;28;19911;-76
2021/07/28 07:10:42;;;;;;;;;;;717.70;2432.00;;;;;;5074333;28;19923;-73
2021/07/28 07:13:08;;;;;;;;;;;742.40;2432.00;;;;;;5074285;28;19944;-72
2021/07/28 07:15:33;;;;;;;;;;;742.60;2432.00;;;;;;5074372;28;19915;-72
2021/07/28 07:17:59;;;;;;;;;;;742.80;2432.00;;;;;;5074073;28;19953;-72
2021/07/28 07:20:24;;;;;;;;;;;742.80;2432.00;;;;;;5086445;28;20400;-72
2021/07/28 07:22:50;;;;;;;;;;;742.90;2432.00;;;;;;5074215;28;19905;-72
2021/07/28 07:25:16;;;;;;;;;;;743.10;2432.00;;;;;;5073958;28;20333;-73
2021/07/28 07:27:42;;;;;;;;;;;743.30;2432.00;;;;;;5074214;28;19904;-76
2021/07/28 07:30:09;;;;;;;;;;;768.20;2432.00;;;;;;5074174;28;20038;-76
2021/07/28 07:32:35;;;;;;;;;;;768.40;2432.00;;;;;;5055904;28;19961;-76
2021/07/28 07:35:00;;;;;;;;;;;768.50;2432.00;;;;;;5065522;28;19909;-73
2021/07/28 07:37:26;;;;;;;;;;;768.60;2432.00;;;;;;5071731;28;20422;-77
2021/07/28 07:39:52;;;;;;;;;;;768.90;2432.00;;;;;;5073922;28;19904;-76
2021/07/28 07:42:18;;;;;;;;;;;793.80;2432.00;;;;;;5073612;28;19909;-74
2021/07/28 07:44:45;;;;;;;;;;;794.00;2432.00;;;;;;5073867;28;19908;-72
2021/07/28 07:47:11;;;;;;;;;;;794.20;2432.00;;;;;;5073886;28;19905;-72
2021/07/28 07:49:37;;;;;;;;;;;794.40;2432.00;;;;;;5073578;28;19919;-71
2021/07/28 07:52:02;;;;;;;;;;;819.20;2432.00;;;;;;5073528;28;20002;-72
2021/07/28 07:54:28;;;;;;;;;;;819.40;2432.00;;;;;;5073465;28;19904;-72
2021/07/28 07:56:54;;;;;;;;;;;819.60;2432.00;;;;;;5073744;28;19912;-72
2021/07/28 07:59:19;;;;;;;;;;;819.80;2432.00;;;;;;5073214;28;19908;-73
2021/07/28 08:01:45;;;;;;;;;;;820.10;2432.00;;;;;;5073565;28;20046;-72
2021/07/28 08:04:11;;;;;;;;;;;844.90;2432.00;;;;;;5072900;28;20270;-73
2021/07/28 08:06:36;;;;;;;;;;;820.10;2432.00;;;;;;5073188;28;20251;-72
2021/07/28 08:09:02;;;;;;;;;;;844.90;2432.00;;;;;;5090553;28;19916;-72
2021/07/28 08:11:27;;;;;;;;;;;845.20;2432.00;;;;;;5076488;28;19915;-72
2021/07/28 08:13:53;;;;;;;;;;;845.40;2406.40;;;;;;5073269;28;19908;-72
2021/07/28 08:16:20;;;;;;;;;;;845.30;2355.20;;;;;;5073077;28;19995;-72
2021/07/28 08:18:46;;;;;;;;;;;845.20;2406.40;;;;;;5087165;28;19908;-73
2021/07/28 08:21:12;;;;;;;;;;;845.00;2406.40;;;;;;5092471;28;19957;-73
2021/07/28 08:23:38;;;;;;;;;;;845.20;2380.80;;;;;;5092006;28;20353;-71
2021/07/28 08:26:04;;;;;;;;;;;845.60;2355.20;;;;;;5088639;28;19908;-73
2021/07/28 08:28:29;;;;;;;;;;;870.50;2329.60;;;;;;5090918;28;19904;-72
2021/07/28 08:30:55;;;;;;;;;;;870.80;2304.00;;;;;;5089092;28;20293;-72
2021/07/28 08:33:22;;;;;;;;;;;871.10;2227.20;;;;;;5091398;28;19947;-71
2021/07/28 08:35:48;;;;;;;;;;;871.20;2201.60;;;;;;5089046;28;19912;-72
2021/07/28 08:38:14;;;;;;;;;;;896.80;2150.40;;;;;;5092474;28;19919;-73
2021/07/28 08:40:41;;;;;;;;;;;921.70;2073.60;;;;;;5091537;28;19904;-75
2021/07/28 08:43:07;;;;;;;;;;;922.40;2073.60;;;;;;5085468;28;20395;-72
2021/07/28 08:45:33;;;;;;;;;;;947.30;2048.00;;;;;;5090371;28;20378;-72
2021/07/28 08:47:59;;;;;;;;;;;947.50;1996.80;;;;;;5088949;28;19915;-75
2021/07/28 08:50:26;;;;;;;;;;;947.60;1971.20;;;;;;5088971;28;20357;-71
2021/07/28 08:52:52;;;;;;;;;;;947.50;1971.20;;;;;;5086174;28;19905;-73
2021/07/28 08:55:20;;;;;;;;;;;922.40;1971.20;;;;;;5087050;28;20256;-73
2021/07/28 08:57:45;;;;;;;;;;;922.50;1971.20;;;;;;5085548;28;20408;-76
2021/07/28 09:00:12;;;;;;;;;;;922.40;1971.20;;;;;;5084669;28;19904;-73
2021/07/28 09:02:38;;;;;;;;;;;922.50;1945.60;;;;;;5061697;28;19904;-73
2021/07/28 09:05:03;;;;;;;;;;;922.40;1971.20;;;;;;5084372;28;19951;-73
2021/07/28 09:07:35;;;;;;;;;;;922.20;1971.20;;;;;;5088949;28;19975;-74
2021/07/28 09:10:01;;;;;;;;;;;922.00;1971.20;;;;;;5085994;28;19956;-77
2021/07/28 09:12:32;;;;;;;;;;;921.80;1971.20;;;;;;5090541;28;19962;-72
2021/07/28 09:15:01;;;;;;;;;;;921.60;1996.80;;;;;;5090288;28;20053;-82
2021/07/28 09:17:27;;;;;;;;;;;896.80;1945.60;;;;;;5068879;28;19904;-82
2021/07/28 09:19:54;;;;;;;;;;;896.70;1996.80;;;;;;5076636;28;19904;-83
2021/07/28 09:22:20;;;;;;;;;;;896.60;1996.80;;;;;;5086481;28;19914;-84
2021/07/28 09:25:06;;;;;;;;;;;896.40;1996.80;;;;;;5091533;28;19993;-81
2021/07/28 09:27:42;;;;;;;;;;;896.30;1996.80;;;;;;5088795;28;20313;-83
2021/07/28 09:30:08;;;;;;;;;;;871.30;2022.40;;;;;;5092810;28;19958;-76
2021/07/28 09:32:35;;;;;;;;;;;896.00;1996.80;;;;;;5089846;28;19977;-79
2021/07/28 09:35:01;;;;;;;;;;;896.00;1996.80;;;;;;5092982;28;19904;-79
2021/07/28 09:37:27;;;;;;;;;;;871.30;2022.40;;;;;;5061485;28;19905;-78
2021/07/28 09:39:53;;;;;;;;;;;871.30;1996.80;;;;;;5076378;28;19962;-78
2021/07/28 09:42:19;;;;;;;;;;;871.20;2022.40;;;;;;5075910;28;20398;-79
2021/07/28 09:44:52;;;;;;;;;;;871.00;2048.00;;;;;;5076249;28;19904;-78
2021/07/28 09:47:18;;;;;;;;;;;870.80;2048.00;;;;;;5075925;28;19908;-84
2021/07/28 09:49:44;;;;;;;;;;;870.80;2048.00;;;;;;5078979;28;19948;-83
2021/07/28 09:52:24;;;;;;;;;;;870.90;2073.60;;;;;;5091009;28;19919;-78
2021/07/28 09:54:51;;;;;;;;;;;870.80;2022.40;;;;;;5086682;28;20416;-78
2021/07/28 09:57:26;;;;;;;;;;;870.80;2048.00;;;;;;5091596;28;19904;-77
2021/07/28 09:59:54;;;;;;;;;;;870.70;2073.60;;;;;;5088319;28;20630;-77
2021/07/28 10:02:20;;;;;;;;;;;870.70;2073.60;;;;;;5092533;28;19908;-84
2021/07/28 10:04:50;;;;;;;;;;;870.70;2073.60;;;;;;5089161;28;19911;-74
2021/07/28 10:07:17;;;;;;;;;;;870.70;2124.80;;;;;;5089078;28;19950;-81
2021/07/28 10:09:43;;;;;;;;;;;870.70;2073.60;;;;;;5088378;28;19977;-82
2021/07/28 10:12:09;;;;;;;;;;;870.70;2073.60;;;;;;5070672;28;19969;-84
2021/07/28 10:14:35;;;;;;;;;;;870.60;2073.60;;;;;;5092415;28;20370;-83
2021/07/28 10:17:01;;;;;;;;;;;870.40;2124.80;;;;;;5088165;28;20358;-84
2021/07/28 10:19:27;;;;;;;;;;;845.70;2124.80;;;;;;5083404;28;19966;-84
2021/07/28 10:21:53;;;;;;;;;;;870.40;2124.80;;;;;;5075716;28;19912;-78
2021/07/28 10:24:19;;;;;;;;;;;870.50;2099.20;;;;;;5075678;28;19951;-77
2021/07/28 10:26:45;;;;;;;;;;;870.50;2124.80;;;;;;5075267;28;19978;-78
2021/07/28 10:29:11;;;;;;;;;;;870.50;2150.40;;;;;;5074976;28;19912;-75
2021/07/28 10:31:49;;;;;;;;;;;870.60;2099.20;;;;;;5075592;28;19908;-75
2021/07/28 10:34:22;;;;;;;;;;;870.40;2099.20;;;;;;5073177;28;20267;-73
2021/07/28 10:36:48;;;;;;;;;;;870.40;2124.80;;;;;;5066525;28;19915;-74
2021/07/28 10:39:32;;;;;;;;;;;870.40;2099.20;;;;;;5083898;28;19908;-77
2021/07/28 10:41:58;;;;;;;;;;;845.70;2124.80;;;;;;5061220;28;19959;-82
2021/07/28 10:44:23;;;;;;;;;;;845.70;2099.20;;;;;;5072935;28;20323;-75
2021/07/28 10:46:52;;;;;;;;;;;870.40;2124.80;;;;;;5074883;28;19904;-75
2021/07/28 10:49:35;;;;;;;;;;;870.40;2124.80;;;;;;5075059;28;20362;-77
2021/07/28 10:52:02;;;;;;;;;;;870.50;2099.20;;;;;;5075058;28;19909;-78
2021/07/28 10:54:52;;;;;;;;;;;870.50;2099.20;;;;;;5074761;28;19904;-83
2021/07/28 10:57:33;;;;;;;;;;;845.70;2150.40;;;;;;5056459;28;19905;-74
2021/07/28 10:59:59;;;;;;;;;;;870.50;2099.20;;;;;;5074987;28;20322;-83
2021/07/28 11:02:44;;;;;;;;;;;870.50;2073.60;;;;;;5056896;28;19948;-84
2021/07/28 11:05:22;;;;;;;;;;;870.50;2099.20;;;;;;5064842;28;19904;-84
2021/07/28 11:08:03;;;;;;;;;;;870.60;2073.60;;;;;;5074607;28;19910;-83
2021/07/28 11:10:37;;;;;;;;;;;870.50;2099.20;;;;;;5074565;28;19956;-74
2021/07/28 11:13:10;;;;;;;;;;;870.70;2073.60;;;;;;5074288;28;19912;-75
2021/07/28 11:15:36;;;;;;;;;;;845.60;2099.20;;;;;;5074443;28;19979;-77
2021/07/28 11:18:02;;;;;;;;;;;845.60;2176.00;;;;;;5074320;28;19905;-83
2021/07/28 11:20:28;;;;;;;;;;;845.70;2124.80;;;;;;5074403;28;19905;-75
2021/07/28 11:23:12;;;;;;;;;;;870.50;2099.20;;;;;;5074543;28;19908;-77
2021/07/28 11:25:38;;;;;;;;;;;870.60;2073.60;;;;;;5074319;28;19954;-83
2021/07/28 11:28:04;;;;;;;;;;;870.80;2048.00;;;;;;5074303;28;19912;-83
2021/07/28 11:30:30;;;;;;;;;;;870.90;2048.00;;;;;;5056359;28;19912;-81
2021/07/28 11:33:10;;;;;;;;;;;870.70;2073.60;;;;;;5076937;28;19908;-75
2021/07/28 11:35:42;;;;;;;;;;;870.70;2124.80;;;;;;5088115;28;19904;-73
2021/07/28 11:38:18;;;;;;;;;;;870.80;2124.80;;;;;;5085539;28;19992;-78
2021/07/28 11:40:48;;;;;;;;;;;845.70;2150.40;;;;;;5088418;28;20281;-72
2021/07/28 11:43:23;;;;;;;;;;;870.70;2099.20;;;;;;5088694;28;19907;-73
2021/07/28 11:45:49;;;;;;;;;;;870.70;2073.60;;;;;;5089659;28;19950;-76
2021/07/28 11:48:34;;;;;;;;;;;870.70;2099.20;;;;;;5084380;28;19908;-75
2021/07/28 11:51:09;;;;;;;;;;;870.80;2073.60;;;;;;5086684;28;19916;-77
2021/07/28 11:53:35;;;;;;;;;;;870.90;2073.60;;;;;;5083352;28;20409;-80
2021/07/28 11:56:15;;;;;;;;;;;870.90;2073.60;;;;;;5073994;28;19904;-83
2021/07/28 11:58:41;;;;;;;;;;;870.90;2073.60;;;;;;5073735;28;19904;-78
2021/07/28 12:01:23;;;;;;;;;;;870.70;2099.20;;;;;;5073503;28;19914;-77
2021/07/28 12:03:58;;;;;;;;;;;870.90;2073.60;;;;;;5073648;28;20378;-76
2021/07/28 12:06:31;;;;;;;;;;;870.60;2099.20;;;;;;5073763;28;20281;-76
2021/07/28 12:09:09;;;;;;;;;;;845.70;2124.80;;;;;;5073123;28;19962;-78
2021/07/28 12:11:50;;;;;;;;;;;870.40;2073.60;;;;;;5086409;28;19921;-79
2021/07/28 12:14:22;;;;;;;;;;;870.50;2073.60;;;;;;5073277;28;19951;-78
2021/07/28 12:16:47;;;;;;;;;;;870.60;2099.20;;;;;;5073202;28;19909;-77
2021/07/28 12:19:13;;;;;;;;;;;845.70;2124.80;;;;;;5055360;28;19905;-76
2021/07/28 12:21:55;;;;;;;;;;;870.50;2048.00;;;;;;5073269;28;19905;-77
2021/07/28 12:24:34;;;;;;;;;;;870.60;2073.60;;;;;;5059973;28;19953;-77
2021/07/28 12:27:33;;;;;;;;;;;845.70;2124.80;;;;;;5072863;28;20428;-77
2021/07/28 12:29:59;;;;;;;;;;;845.60;2124.80;;;;;;5080646;28;19934;-76
2021/07/28 12:32:45;;;;;;;;;;;845.60;2124.80;;;;;;5087107;28;19909;-78
2021/07/28 12:35:13;;;;;;;;;;;845.50;2124.80;;;;;;5087170;28;20267;-78
2021/07/28 12:37:40;;;;;;;;;;;845.70;2022.40;;;;;;5088727;28;19908;-82
2021/07/28 12:40:06;;;;;;;;;;;870.50;2022.40;;;;;;5073088;28;19912;-73
2021/07/28 12:42:32;;;;;;;;;;;870.40;2099.20;;;;;;5089655;28;19908;-78
2021/07/28 12:44:58;;;;;;;;;;;870.60;2073.60;;;;;;5092543;28;19908;-73
2021/07/28 12:47:23;;;;;;;;;;;870.50;2099.20;;;;;;5089375;28;19919;-74
2021/07/28 12:49:49;;;;;;;;;;;870.50;2048.00;;;;;;5088199;28;19911;-73
2021/07/28 12:52:15;;;;;;;;;;;870.80;1996.80;;;;;;5090055;28;19908;-78
2021/07/28 12:54:41;;;;;;;;;;;870.60;2073.60;;;;;;5089536;28;19904;-75
2021/07/28 12:57:07;;;;;;;;;;;870.70;2048.00;;;;;;5090908;28;19992;-72
2021/07/28 12:59:32;;;;;;;;;;;870.70;2048.00;;;;;;5090969;28;19904;-85
2021/07/28 13:02:00;;;;;;;;;;;870.70;2048.00;;;;;;5092366;28;19904;-77
2021/07/28 13:04:27;;;;;;;;;;;870.70;2048.00;;;;;;5089011;28;19904;-73
2021/07/28 13:06:56;;;;;;;;;;;870.50;2073.60;;;;;;5088636;28;19969;-82
2021/07/28 13:09:22;;;;;;;;;;;870.50;2073.60;;;;;;5089509;28;19922;-74
2021/07/28 13:11:48;;;;;;;;;;;845.60;2073.60;;;;;;5090332;28;19908;-73
2021/07/28 13:14:13;;;;;;;;;;;845.50;2099.20;;;;;;5089663;28;19912;-77
2021/07/28 13:16:39;;;;;;;;;;;845.70;2048.00;;;;;;5086190;28;19908;-76
2021/07/28 13:19:04;;;;;;;;;;;845.50;2099.20;;;;;;5088870;28;20400;-78
2021/07/28 13:21:30;;;;;;;;;;;845.70;2073.60;;;;;;5090826;28;21420;-76
2021/07/28 13:23:56;;;;;;;;;;;845.60;2099.20;;;;;;5087198;28;19998;-77
2021/07/28 13:26:21;;;;;;;;;;;845.60;2124.80;;;;;;5088665;28;19907;-74
2021/07/28 13:28:47;;;;;;;;;;;845.60;2099.20;;;;;;5087592;28;19930;-77
2021/07/28 13:31:13;;;;;;;;;;;845.50;2099.20;;;;;;5089016;28;20397;-78
2021/07/28 13:33:38;;;;;;;;;;;845.40;2124.80;;;;;;5089785;28;19935;-73
2021/07/28 13:36:04;;;;;;;;;;;845.40;2073.60;;;;;;5088641;28;19915;-72
2021/07/28 13:38:30;;;;;;;;;;;845.70;2022.40;;;;;;5091160;28;20366;-73
2021/07/28 13:40:56;;;;;;;;;;;845.70;2073.60;;;;;;5086100;28;20513;-74
2021/07/28 13:43:21;;;;;;;;;;;845.50;2099.20;;;;;;5087236;28;20003;-69
2021/07/28 13:45:47;;;;;;;;;;;870.50;2022.40;;;;;;5062122;28;19919;-72
2021/07/28 13:48:13;;;;;;;;;;;870.80;1996.80;;;;;;5054425;28;19966;-73